Time;durP1;ratioP1;P1;durP2;ratioP2;P2;SDS_P1;SDS_P2;PMS_P1;PMS_P2;Temp;Humidity;BMP_temperature;BMP_pressure;BME280_temperature;BME280_humidity;BME280_pressure;Samples;Min_cycle;Max_cycle;Signal;HPM_P1;HPM_P2
2023/09/06 00:01:25;;;;;;;0.10;0.10;;;;;;;;;;4997889;28;20044;-91
2023/09/06 00:03:51;;;;;;;0.10;0.10;;;;;;;;;;5014066;28;20037;-92
2023/09/06 00:06:17;;;;;;;0.10;0.10;;;;;;;;;;4998192;28;20404;-92
2023/09/06 00:08:43;;;;;;;0.10;0.10;;;;;;;;;;5014857;28;20050;-91
2023/09/06 00:11:09;;;;;;;0.10;0.10;;;;;;;;;;4998405;28;20496;-92
2023/09/06 00:13:35;;;;;;;0.05;0.05;;;;;;;;;;4998901;28;20046;-91
2023/09/06 00:16:02;;;;;;;0.10;0.10;;;;;;;;;;5004138;28;20347;-92
2023/09/06 00:18:28;;;;;;;0.10;0.10;;;;;;;;;;5004423;28;20058;-92
2023/09/06 00:20:54;;;;;;;0.10;0.10;;;;;;;;;;4998204;28;20158;-91
2023/09/06 00:23:20;;;;;;;0.10;0.10;;;;;;;;;;4998519;28;20037;-91
2023/09/06 00:25:46;;;;;;;0.10;0.10;;;;;;;;;;4997778;28;20140;-91
2023/09/06 00:28:13;;;;;;;0.10;0.10;;;;;;;;;;5014132;28;20050;-91
2023/09/06 00:30:39;;;;;;;0.10;0.10;;;;;;;;;;4997822;28;20133;-92
2023/09/06 00:33:06;;;;;;;0.10;0.10;;;;;;;;;;4997622;28;20074;-91
2023/09/06 00:35:32;;;;;;;0.10;0.10;;;;;;;;;;5014301;28;20053;-92
2023/09/06 00:38:05;;;;;;;0.10;0.10;;;;;;;;;;4997540;28;20054;-91
2023/09/06 00:40:31;;;;;;;0.10;0.10;;;;;;;;;;4998423;28;20045;-92
2023/09/06 00:42:59;;;;;;;0.10;0.10;;;;;;;;;;5013968;28;20052;-91
2023/09/06 00:45:26;;;;;;;0.10;0.10;;;;;;;;;;4997517;28;20568;-91
2023/09/06 00:47:52;;;;;;;0.10;0.10;;;;;;;;;;4997684;28;20053;-92
2023/09/06 00:50:18;;;;;;;0.10;0.10;;;;;;;;;;5013811;28;20536;-92
2023/09/06 00:52:44;;;;;;;0.10;0.10;;;;;;;;;;5013617;28;20509;-92
2023/09/06 00:55:10;;;;;;;0.10;0.10;;;;;;;;;;4997233;28;20046;-91
2023/09/06 00:57:36;;;;;;;0.10;0.10;;;;;;;;;;4996862;28;20184;-93
2023/09/06 01:00:06;;;;;;;0.10;0.10;;;;;;;;;;5013534;28;20168;-92
2023/09/06 01:02:32;;;;;;;0.55;0.20;;;;;;;;;;4998184;28;20046;-91
2023/09/06 01:04:58;;;;;;;0.10;0.10;;;;;;;;;;4997169;28;20045;-91
2023/09/06 01:07:25;;;;;;;0.10;0.10;;;;;;;;;;4997355;28;20074;-91
2023/09/06 01:09:51;;;;;;;0.10;0.10;;;;;;;;;;5013536;28;20040;-91
2023/09/06 01:12:17;;;;;;;0.10;0.10;;;;;;;;;;4996829;28;20121;-91
2023/09/06 01:14:43;;;;;;;0.10;0.10;;;;;;;;;;5013277;28;20072;-91
2023/09/06 01:17:10;;;;;;;0.10;0.10;;;;;;;;;;4996685;28;20041;-90
2023/09/06 01:19:36;;;;;;;0.10;0.10;;;;;;;;;;5013060;28;20085;-91
2023/09/06 01:22:05;;;;;;;0.10;0.10;;;;;;;;;;4996798;28;20045;-91
2023/09/06 01:24:31;;;;;;;0.10;0.10;;;;;;;;;;4996863;28;20128;-91
2023/09/06 01:26:57;;;;;;;0.10;0.10;;;;;;;;;;4996330;28;20128;-92
2023/09/06 01:29:23;;;;;;;0.10;0.10;;;;;;;;;;4996381;28;20046;-91
2023/09/06 01:31:49;;;;;;;0.10;0.10;;;;;;;;;;4997266;28;20129;-90
2023/09/06 01:34:15;;;;;;;0.10;0.10;;;;;;;;;;4997032;28;20045;-91
2023/09/06 01:36:41;;;;;;;0.10;0.10;;;;;;;;;;5012470;28;20492;-91
2023/09/06 01:39:08;;;;;;;0.10;0.10;;;;;;;;;;4996311;28;20045;-91
2023/09/06 01:41:35;;;;;;;0.10;0.10;;;;;;;;;;5012917;28;20045;-91
2023/09/06 01:44:01;;;;;;;0.10;0.10;;;;;;;;;;4996691;28;20397;-91
2023/09/06 01:46:27;;;;;;;0.10;0.10;;;;;;;;;;4996464;28;20049;-91
2023/09/06 01:48:53;;;;;;;0.10;0.10;;;;;;;;;;4996767;28;20100;-91
2023/09/06 01:51:19;;;;;;;0.15;0.15;;;;;;;;;;5012734;28;20077;-91
2023/09/06 01:53:45;;;;;;;0.10;0.10;;;;;;;;;;5012598;28;20068;-91
2023/09/06 01:56:10;;;;;;;0.10;0.10;;;;;;;;;;4996188;28;20061;-91
2023/09/06 01:58:37;;;;;;;0.10;0.10;;;;;;;;;;5012308;28;20077;-91
2023/09/06 02:01:06;;;;;;;0.10;0.10;;;;;;;;;;4996481;28;20164;-91
2023/09/06 02:03:33;;;;;;;0.10;0.10;;;;;;;;;;5012643;28;20037;-91
2023/09/06 02:06:01;;;;;;;0.10;0.10;;;;;;;;;;5012192;28;20042;-91
2023/09/06 02:08:27;;;;;;;0.10;0.10;;;;;;;;;;4996238;28;20041;-92
2023/09/06 02:10:53;;;;;;;0.10;0.10;;;;;;;;;;4994591;28;20096;-91
2023/09/06 02:13:19;;;;;;;0.10;0.10;;;;;;;;;;5012698;28;20042;-91
2023/09/06 02:15:44;;;;;;;0.10;0.10;;;;;;;;;;5012449;28;20034;-91
2023/09/06 02:18:15;;;;;;;0.10;0.10;;;;;;;;;;4996010;28;20505;-91
2023/09/06 02:20:41;;;;;;;0.10;0.10;;;;;;;;;;5013728;28;20042;-92
2023/09/06 02:23:07;;;;;;;0.10;0.10;;;;;;;;;;4996179;28;20428;-91
2023/09/06 02:25:33;;;;;;;0.10;0.10;;;;;;;;;;4995950;28;20041;-92
2023/09/06 02:28:05;;;;;;;0.10;0.10;;;;;;;;;;5012360;28;20073;-92
2023/09/06 02:30:31;;;;;;;0.10;0.10;;;;;;;;;;4996683;28;20128;-92
2023/09/06 02:32:57;;;;;;;0.10;0.10;;;;;;;;;;5012367;28;20288;-91
2023/09/06 02:35:23;;;;;;;0.10;0.10;;;;;;;;;;4996026;28;20034;-90
2023/09/06 02:37:49;;;;;;;0.10;0.10;;;;;;;;;;4995778;28;20034;-91
2023/09/06 02:40:18;;;;;;;0.10;0.10;;;;;;;;;;4995914;28;20101;-91
2023/09/06 02:42:44;;;;;;;0.10;0.10;;;;;;;;;;4996181;28;20049;-91
2023/09/06 02:45:13;;;;;;;0.10;0.10;;;;;;;;;;4995674;28;20038;-91
2023/09/06 02:47:47;;;;;;;0.10;0.10;;;;;;;;;;4996006;28;20032;-91
2023/09/06 02:50:14;;;;;;;0.10;0.10;;;;;;;;;;4996629;28;20041;-91
2023/09/06 02:52:44;;;;;;;0.10;0.10;;;;;;;;;;5028553;28;20064;-91
2023/09/06 02:55:13;;;;;;;0.10;0.10;;;;;;;;;;5012138;28;20038;-91
2023/09/06 02:57:40;;;;;;;0.20;0.20;;;;;;;;;;5011307;28;20532;-93
2023/09/06 03:00:24;;;;;;;0.10;0.10;;;;;;;;;;4995293;28;20038;-93
2023/09/06 03:02:52;;;;;;;0.10;0.10;;;;;;;;;;5013620;28;20405;-93
2023/09/06 03:05:18;;;;;;;0.10;0.10;;;;;;;;;;4995527;28;20050;-93
2023/09/06 03:07:45;;;;;;;0.10;0.10;;;;;;;;;;4995658;28;20520;-93
2023/09/06 03:10:11;;;;;;;0.10;0.10;;;;;;;;;;5011957;28;20229;-93
2023/09/06 03:12:41;;;;;;;0.10;0.10;;;;;;;;;;4995462;28;20451;-93
2023/09/06 03:15:11;;;;;;;0.10;0.10;;;;;;;;;;4995646;28;20057;-93
2023/09/06 03:17:37;;;;;;;0.10;0.10;;;;;;;;;;5011924;28;20398;-93
2023/09/06 03:20:18;;;;;;;0.10;0.10;;;;;;;;;;4995284;28;20054;-93
2023/09/06 03:22:46;;;;;;;0.10;0.10;;;;;;;;;;5017536;28;20423;-92
2023/09/06 03:25:14;;;;;;;0.10;0.10;;;;;;;;;;5015185;28;20444;-94
2023/09/06 03:27:42;;;;;;;0.10;0.10;;;;;;;;;;5015551;28;20129;-93
2023/09/06 03:30:09;;;;;;;0.10;0.10;;;;;;;;;;5015191;28;20092;-93
2023/09/06 03:32:35;;;;;;;0.10;0.10;;;;;;;;;;5015343;28;20374;-93
2023/09/06 03:35:04;;;;;;;0.10;0.10;;;;;;;;;;4998807;28;20471;-93
2023/09/06 03:37:30;;;;;;;0.10;0.10;;;;;;;;;;4999166;28;20046;-93
2023/09/06 03:39:56;;;;;;;0.10;0.10;;;;;;;;;;4999003;28;20038;-93
2023/09/06 03:42:23;;;;;;;0.10;0.10;;;;;;;;;;5015306;28;20038;-93
2023/09/06 03:44:49;;;;;;;0.10;0.10;;;;;;;;;;4998611;28;20060;-94
2023/09/06 03:47:20;;;;;;;0.10;0.10;;;;;;;;;;4998741;28;20042;-94
2023/09/06 03:49:46;;;;;;;0.10;0.10;;;;;;;;;;5015063;28;20038;-94
2023/09/06 03:52:12;;;;;;;0.10;0.10;;;;;;;;;;4998377;28;20041;-93
2023/09/06 03:54:38;;;;;;;0.10;0.10;;;;;;;;;;4997775;28;20046;-94
2023/09/06 03:57:07;;;;;;;0.10;0.10;;;;;;;;;;4997953;28;20097;-93
2023/09/06 03:59:35;;;;;;;0.10;0.10;;;;;;;;;;4998819;28;20041;-93
2023/09/06 04:02:13;;;;;;;0.10;0.10;;;;;;;;;;5015525;28;20042;-94
2023/09/06 04:04:39;;;;;;;0.10;0.10;;;;;;;;;;5017122;28;20100;-93
2023/09/06 04:07:08;;;;;;;0.10;0.10;;;;;;;;;;5015548;28;20038;-93
2023/09/06 04:09:37;;;;;;;0.10;0.10;;;;;;;;;;4998052;28;20042;-93
2023/09/06 04:12:05;;;;;;;0.10;0.10;;;;;;;;;;5014579;28;20045;-93
2023/09/06 04:14:34;;;;;;;0.10;0.10;;;;;;;;;;4998460;28;20117;-94
2023/09/06 04:17:00;;;;;;;0.10;0.10;;;;;;;;;;4998493;28;20049;-93
2023/09/06 04:19:26;;;;;;;0.10;0.10;;;;;;;;;;5014066;28;20054;-93
2023/09/06 04:21:52;;;;;;;0.10;0.10;;;;;;;;;;4998116;28;20129;-93
2023/09/06 04:24:20;;;;;;;0.10;0.10;;;;;;;;;;4997554;28;20125;-93
2023/09/06 04:26:46;;;;;;;0.43;0.20;;;;;;;;;;5014130;28;20497;-93
2023/09/06 04:29:12;;;;;;;0.10;0.10;;;;;;;;;;4997938;28;20048;-92
2023/09/06 04:31:41;;;;;;;0.10;0.10;;;;;;;;;;5030508;28;20045;-93
2023/09/06 04:34:07;;;;;;;0.10;0.10;;;;;;;;;;4997018;28;20041;-92
2023/09/06 04:36:36;;;;;;;0.10;0.10;;;;;;;;;;4997461;28;20042;-93
2023/09/06 04:39:03;;;;;;;0.10;0.10;;;;;;;;;;4997880;28;20041;-93
2023/09/06 04:41:31;;;;;;;0.10;0.10;;;;;;;;;;5013850;28;20034;-93
2023/09/06 04:43:57;;;;;;;0.10;0.10;;;;;;;;;;4997414;28;20038;-93
2023/09/06 04:46:23;;;;;;;0.10;0.10;;;;;;;;;;4997170;28;20400;-92
2023/09/06 04:48:49;;;;;;;0.30;0.30;;;;;;;;;;4997319;28;20045;-93
2023/09/06 04:51:18;;;;;;;0.10;0.10;;;;;;;;;;5013663;28;20100;-93
2023/09/06 04:53:44;;;;;;;0.10;0.10;;;;;;;;;;4997190;28;20044;-93
2023/09/06 04:56:10;;;;;;;0.10;0.10;;;;;;;;;;5013269;28;20436;-93
2023/09/06 04:58:36;;;;;;;0.10;0.10;;;;;;;;;;5013606;28;20063;-93
2023/09/06 05:01:07;;;;;;;0.10;0.10;;;;;;;;;;4997014;28;20045;-93
2023/09/06 05:03:33;;;;;;;0.10;0.10;;;;;;;;;;5013000;28;20049;-93
2023/09/06 05:06:00;;;;;;;0.10;0.10;;;;;;;;;;5013324;28;20038;-93
2023/09/06 05:08:26;;;;;;;0.10;0.10;;;;;;;;;;4996968;28;20046;-92
2023/09/06 05:10:52;;;;;;;0.10;0.10;;;;;;;;;;4997033;28;20370;-93
2023/09/06 05:13:18;;;;;;;0.10;0.10;;;;;;;;;;4996757;28;20080;-93
2023/09/06 05:15:44;;;;;;;0.10;0.10;;;;;;;;;;4996718;28;20132;-91
2023/09/06 05:18:10;;;;;;;0.10;0.10;;;;;;;;;;4996454;28;20462;-91
2023/09/06 05:20:37;;;;;;;0.10;0.10;;;;;;;;;;4997089;28;20073;-91
2023/09/06 05:23:07;;;;;;;0.10;0.10;;;;;;;;;;5013586;28;20037;-91
2023/09/06 05:25:33;;;;;;;0.10;0.10;;;;;;;;;;5013204;28;20100;-91
2023/09/06 05:28:01;;;;;;;0.10;0.10;;;;;;;;;;4996634;28;20046;-92
2023/09/06 05:30:27;;;;;;;0.10;0.10;;;;;;;;;;4996878;28;20073;-91
2023/09/06 05:32:56;;;;;;;0.10;0.10;;;;;;;;;;4996506;28;20052;-91
2023/09/06 05:35:26;;;;;;;0.10;0.10;;;;;;;;;;4996530;28;20049;-91
2023/09/06 05:37:52;;;;;;;0.10;0.10;;;;;;;;;;4996995;28;20124;-91
2023/09/06 05:40:22;;;;;;;0.10;0.10;;;;;;;;;;4996664;28;20045;-91
2023/09/06 05:42:48;;;;;;;0.10;0.10;;;;;;;;;;5013299;28;20041;-90
2023/09/06 05:45:14;;;;;;;0.10;0.10;;;;;;;;;;5012868;28;20044;-91
2023/09/06 05:47:40;;;;;;;0.10;0.10;;;;;;;;;;5012794;28;20065;-91
2023/09/06 05:50:06;;;;;;;0.10;0.10;;;;;;;;;;4996717;28;20034;-91
2023/09/06 05:52:33;;;;;;;0.10;0.10;;;;;;;;;;5012884;28;20041;-90
2023/09/06 05:54:59;;;;;;;0.10;0.10;;;;;;;;;;4995934;28;20496;-92
2023/09/06 05:57:25;;;;;;;0.10;0.10;;;;;;;;;;5012362;28;20042;-92
2023/09/06 05:59:51;;;;;;;0.10;0.10;;;;;;;;;;4996154;28;20513;-93
2023/09/06 06:02:17;;;;;;;0.10;0.10;;;;;;;;;;4995995;28;20042;-93
2023/09/06 06:04:46;;;;;;;0.10;0.10;;;;;;;;;;4996083;28;20042;-93
2023/09/06 06:07:16;;;;;;;0.10;0.10;;;;;;;;;;4996548;28;20042;-93
2023/09/06 06:09:42;;;;;;;0.10;0.10;;;;;;;;;;4996063;28;20093;-93
2023/09/06 06:12:10;;;;;;;0.10;0.10;;;;;;;;;;5012174;28;20561;-92
2023/09/06 06:14:36;;;;;;;0.10;0.10;;;;;;;;;;5011623;28;20041;-94
2023/09/06 06:17:03;;;;;;;0.10;0.10;;;;;;;;;;4995748;28;20081;-93
2023/09/06 06:19:29;;;;;;;0.20;0.20;;;;;;;;;;4995572;28;20049;-93
2023/09/06 06:21:55;;;;;;;0.10;0.10;;;;;;;;;;5012122;28;20112;-93
2023/09/06 06:24:21;;;;;;;0.10;0.10;;;;;;;;;;4995706;28;20034;-92
2023/09/06 06:26:49;;;;;;;0.10;0.10;;;;;;;;;;5012414;28;20050;-91
2023/09/06 06:29:16;;;;;;;0.20;0.20;;;;;;;;;;4995997;28;20136;-91
2023/09/06 06:31:42;;;;;;;0.10;0.10;;;;;;;;;;4996002;28;20044;-92
2023/09/06 06:34:09;;;;;;;0.10;0.10;;;;;;;;;;4995546;28;20050;-91
2023/09/06 06:36:35;;;;;;;0.10;0.10;;;;;;;;;;5011962;28;20478;-92
2023/09/06 06:39:01;;;;;;;0.10;0.10;;;;;;;;;;5012128;28;20053;-92
2023/09/06 06:41:27;;;;;;;0.10;0.10;;;;;;;;;;5012258;28;20114;-92
2023/09/06 06:43:53;;;;;;;0.10;0.10;;;;;;;;;;5011615;28;20120;-92
2023/09/06 06:46:29;;;;;;;0.10;0.10;;;;;;;;;;4995648;28;20037;-92
2023/09/06 06:48:55;;;;;;;0.15;0.15;;;;;;;;;;4995168;28;20042;-91
2023/09/06 06:51:23;;;;;;;0.10;0.10;;;;;;;;;;4995396;28;20101;-91
2023/09/06 06:53:49;;;;;;;0.10;0.10;;;;;;;;;;5027956;28;20434;-92
2023/09/06 06:56:17;;;;;;;0.10;0.10;;;;;;;;;;4996378;28;20085;-92
2023/09/06 06:58:43;;;;;;;0.20;0.20;;;;;;;;;;4999168;28;20456;-92
2023/09/06 07:01:09;;;;;;;0.10;0.10;;;;;;;;;;4999163;28;20069;-91
2023/09/06 07:03:35;;;;;;;0.10;0.10;;;;;;;;;;5015523;28;20374;-91
2023/09/06 07:06:01;;;;;;;0.10;0.10;;;;;;;;;;4999164;28;20076;-91
2023/09/06 07:08:27;;;;;;;0.10;0.10;;;;;;;;;;4998859;28;20065;-91
2023/09/06 07:10:53;;;;;;;0.10;0.10;;;;;;;;;;4998945;28;20132;-92
2023/09/06 07:13:19;;;;;;;0.17;0.17;;;;;;;;;;4999056;28;20139;-92
2023/09/06 07:15:45;;;;;;;0.10;0.10;;;;;;;;;;4998813;28;20053;-92
2023/09/06 07:18:12;;;;;;;0.10;0.10;;;;;;;;;;5015053;28;20493;-92
2023/09/06 07:20:39;;;;;;;0.20;0.20;;;;;;;;;;4999317;28;20508;-92
2023/09/06 07:23:05;;;;;;;0.10;0.10;;;;;;;;;;5014747;28;20041;-92
2023/09/06 07:25:31;;;;;;;0.10;0.10;;;;;;;;;;4998610;28;20068;-92
2023/09/06 07:27:59;;;;;;;0.20;0.20;;;;;;;;;;5015047;28;20041;-92
2023/09/06 07:30:25;;;;;;;0.20;0.20;;;;;;;;;;4998693;28;20485;-91
2023/09/06 07:32:51;;;;;;;0.20;0.20;;;;;;;;;;5014758;28;20072;-92
2023/09/06 07:35:18;;;;;;;0.20;0.20;;;;;;;;;;4998371;28;20068;-92
2023/09/06 07:37:44;;;;;;;0.20;0.20;;;;;;;;;;5014796;28;20081;-92
2023/09/06 07:40:10;;;;;;;0.20;0.20;;;;;;;;;;5014132;28;20033;-92
2023/09/06 07:42:39;;;;;;;0.20;0.20;;;;;;;;;;4998263;28;20037;-92
2023/09/06 07:45:07;;;;;;;0.28;0.28;;;;;;;;;;4998006;28;20038;-92
2023/09/06 07:47:33;;;;;;;0.20;0.20;;;;;;;;;;4998196;28;20049;-92
2023/09/06 07:49:59;;;;;;;0.20;0.20;;;;;;;;;;5014445;28;20124;-92
2023/09/06 07:52:25;;;;;;;0.30;0.30;;;;;;;;;;5015109;28;20045;-91
2023/09/06 07:54:51;;;;;;;0.30;0.30;;;;;;;;;;4999073;28;20049;-92
2023/09/06 07:57:17;;;;;;;0.15;0.15;;;;;;;;;;4998183;28;20049;-92
2023/09/06 07:59:44;;;;;;;0.20;0.20;;;;;;;;;;4998342;28;20043;-93
2023/09/06 08:02:10;;;;;;;0.20;0.20;;;;;;;;;;4998059;28;20513;-93
2023/09/06 08:04:36;;;;;;;0.20;0.20;;;;;;;;;;5013886;28;20073;-94
2023/09/06 08:07:03;;;;;;;0.20;0.20;;;;;;;;;;4997143;28;20073;-93
2023/09/06 08:09:29;;;;;;;0.20;0.20;;;;;;;;;;5013193;28;20081;-93
2023/09/06 08:12:04;;;;;;;0.20;0.20;;;;;;;;;;5013734;28;20076;-91
2023/09/06 08:14:30;;;;;;;0.20;0.20;;;;;;;;;;4998612;28;20038;-93
2023/09/06 08:16:56;;;;;;;0.20;0.20;;;;;;;;;;4997422;28;20052;-92
2023/09/06 08:19:22;;;;;;;0.20;0.20;;;;;;;;;;5013509;28;20049;-92
2023/09/06 08:21:48;;;;;;;0.20;0.20;;;;;;;;;;5013475;28;20057;-92
2023/09/06 08:24:17;;;;;;;2.05;0.40;;;;;;;;;;5013582;28;20041;-92
2023/09/06 08:26:43;;;;;;;0.20;0.20;;;;;;;;;;4997768;28;20072;-92
2023/09/06 08:29:09;;;;;;;0.20;0.20;;;;;;;;;;4997266;28;20271;-92
2023/09/06 08:31:35;;;;;;;0.20;0.20;;;;;;;;;;4997198;28;20038;-92
2023/09/06 08:34:02;;;;;;;0.20;0.20;;;;;;;;;;4997199;28;20136;-92
2023/09/06 08:36:31;;;;;;;0.20;0.20;;;;;;;;;;5029495;28;20061;-92
2023/09/06 08:38:58;;;;;;;0.20;0.20;;;;;;;;;;4997236;28;20128;-93
2023/09/06 08:41:26;;;;;;;0.20;0.20;;;;;;;;;;4997024;28;20044;-92
2023/09/06 08:43:52;;;;;;;0.20;0.20;;;;;;;;;;4997314;28;20392;-92
2023/09/06 08:46:19;;;;;;;0.40;0.40;;;;;;;;;;5013357;28;20508;-92
2023/09/06 08:48:45;;;;;;;0.20;0.20;;;;;;;;;;5013247;28;20063;-92
2023/09/06 08:51:11;;;;;;;0.20;0.20;;;;;;;;;;5013282;28;20042;-92
2023/09/06 08:53:39;;;;;;;0.20;0.20;;;;;;;;;;4996639;28;20559;-93
2023/09/06 08:56:05;;;;;;;0.20;0.20;;;;;;;;;;5013191;28;20045;-92
2023/09/06 08:58:31;;;;;;;0.20;0.20;;;;;;;;;;4996696;28;20121;-92
2023/09/06 09:00:57;;;;;;;0.20;0.20;;;;;;;;;;5013121;28;20034;-92
2023/09/06 09:03:23;;;;;;;0.20;0.20;;;;;;;;;;4996459;28;20084;-92
2023/09/06 09:05:51;;;;;;;0.20;0.20;;;;;;;;;;4996519;28;20401;-93
2023/09/06 09:08:17;;;;;;;0.20;0.20;;;;;;;;;;4996785;28;20497;-92
2023/09/06 09:10:43;;;;;;;0.20;0.20;;;;;;;;;;5012666;28;20076;-92
2023/09/06 09:13:13;;;;;;;0.20;0.20;;;;;;;;;;5012823;28;20033;-92
2023/09/06 09:15:38;;;;;;;0.30;0.30;;;;;;;;;;4996095;28;20532;-92
2023/09/06 09:18:11;;;;;;;0.32;0.30;;;;;;;;;;4996093;28;20113;-93
2023/09/06 09:20:40;;;;;;;0.30;0.30;;;;;;;;;;4996276;28;20053;-92
2023/09/06 09:23:11;;;;;;;0.25;0.25;;;;;;;;;;4996031;28;20045;-92
2023/09/06 09:25:44;;;;;;;0.30;0.30;;;;;;;;;;4996173;28;20611;-92
2023/09/06 09:28:10;;;;;;;0.20;0.20;;;;;;;;;;5012531;28;20041;-93
2023/09/06 09:30:36;;;;;;;0.30;0.30;;;;;;;;;;5012554;28;20405;-92
2023/09/06 09:33:04;;;;;;;0.30;0.30;;;;;;;;;;4995875;28;20038;-92
2023/09/06 09:35:31;;;;;;;0.20;0.20;;;;;;;;;;4995780;28;20046;-93
2023/09/06 09:37:57;;;;;;;0.30;0.30;;;;;;;;;;4995929;28;20040;-92
2023/09/06 09:40:32;;;;;;;0.30;0.30;;;;;;;;;;4996143;28;20042;-92
2023/09/06 09:42:58;;;;;;;0.30;0.30;;;;;;;;;;5013126;28;20080;-93
2023/09/06 09:45:24;;;;;;;0.20;0.20;;;;;;;;;;5012340;28;20042;-92
2023/09/06 09:47:52;;;;;;;0.20;0.20;;;;;;;;;;4995768;28;20046;-92
2023/09/06 09:50:18;;;;;;;0.20;0.20;;;;;;;;;;5012015;28;20507;-92
2023/09/06 09:52:44;;;;;;;0.20;0.20;;;;;;;;;;5011990;28;20482;-92
2023/09/06 09:55:11;;;;;;;0.20;0.20;;;;;;;;;;4995637;28;20042;-92
2023/09/06 09:57:38;;;;;;;0.30;0.30;;;;;;;;;;5011755;28;20053;-92
2023/09/06 10:00:09;;;;;;;0.20;0.20;;;;;;;;;;5012072;28;20124;-93
2023/09/06 10:02:35;;;;;;;0.20;0.20;;;;;;;;;;4996318;28;20077;-92
2023/09/06 10:05:02;;;;;;;0.30;0.30;;;;;;;;;;4995616;28;20041;-92
2023/09/06 10:07:28;;;;;;;0.30;0.30;;;;;;;;;;4995464;28;20041;-93
2023/09/06 10:09:54;;;;;;;0.30;0.30;;;;;;;;;;4995496;28;20041;-92
2023/09/06 10:12:20;;;;;;;0.20;0.20;;;;;;;;;;4995533;28;20038;-92
2023/09/06 10:14:46;;;;;;;0.30;0.30;;;;;;;;;;4995777;28;20053;-92
2023/09/06 10:17:12;;;;;;;0.20;0.20;;;;;;;;;;4995068;28;20216;-92
2023/09/06 10:19:39;;;;;;;0.30;0.30;;;;;;;;;;5011644;28;20501;-92
2023/09/06 10:22:08;;;;;;;0.30;0.30;;;;;;;;;;4995443;28;20092;-93
2023/09/06 10:24:34;;;;;;;0.30;0.30;;;;;;;;;;5011886;28;20164;-92
2023/09/06 10:27:01;;;;;;;0.20;0.20;;;;;;;;;;4995706;28;20053;-92
2023/09/06 10:29:29;;;;;;;0.30;0.30;;;;;;;;;;5011846;28;20135;-92
2023/09/06 10:31:59;;;;;;;0.30;0.30;;;;;;;;;;4994554;28;20108;-92
2023/09/06 10:34:26;;;;;;;0.30;0.30;;;;;;;;;;4995395;28;20092;-92
2023/09/06 10:36:56;;;;;;;0.20;0.20;;;;;;;;;;4995399;28;20307;-92
2023/09/06 10:39:25;;;;;;;0.20;0.20;;;;;;;;;;4995541;28;20049;-92
2023/09/06 10:42:11;;;;;;;0.20;0.20;;;;;;;;;;4995557;28;20045;-92
2023/09/06 10:44:55;;;;;;;0.20;0.20;;;;;;;;;;5011507;28;20053;-93
2023/09/06 10:47:28;;;;;;;0.20;0.20;;;;;;;;;;5011152;28;20052;-92
2023/09/06 10:50:18;;;;;;;0.20;0.20;;;;;;;;;;5011589;28;20038;-92
2023/09/06 10:52:44;;;;;;;0.20;0.20;;;;;;;;;;4987804;28;20049;-92
2023/09/06 10:55:20;;;;;;;0.35;0.35;;;;;;;;;;5011148;28;20046;-92
2023/09/06 10:57:51;;;;;;;0.20;0.20;;;;;;;;;;4995074;28;20092;-92
2023/09/06 11:00:18;;;;;;;0.30;0.30;;;;;;;;;;5011449;28;20122;-92
2023/09/06 11:02:44;;;;;;;0.20;0.20;;;;;;;;;;4995134;28;20459;-92
2023/09/06 11:05:14;;;;;;;0.20;0.20;;;;;;;;;;4994923;28;20104;-92
2023/09/06 11:07:41;;;;;;;0.30;0.30;;;;;;;;;;5011805;28;20046;-92
2023/09/06 11:10:08;;;;;;;0.20;0.20;;;;;;;;;;4994567;28;20034;-92
2023/09/06 11:12:35;;;;;;;0.30;0.30;;;;;;;;;;5010985;28;20041;-92
2023/09/06 11:15:01;;;;;;;0.20;0.20;;;;;;;;;;4994620;28;20042;-93
2023/09/06 11:17:27;;;;;;;0.30;0.30;;;;;;;;;;4994921;28;20133;-92
2023/09/06 11:19:55;;;;;;;0.50;0.50;;;;;;;;;;4994879;28;20065;-92
2023/09/06 11:22:21;;;;;;;0.20;0.20;;;;;;;;;;5011350;28;20327;-92
2023/09/06 11:24:48;;;;;;;0.20;0.20;;;;;;;;;;4994965;28;20041;-92
2023/09/06 11:27:17;;;;;;;0.20;0.20;;;;;;;;;;4994588;28;20050;-92
2023/09/06 11:29:43;;;;;;;0.20;0.20;;;;;;;;;;5011411;28;20042;-92
2023/09/06 11:32:13;;;;;;;0.20;0.20;;;;;;;;;;5011295;28;20052;-92
2023/09/06 11:34:43;;;;;;;0.20;0.20;;;;;;;;;;4994384;28;20072;-93
2023/09/06 11:37:10;;;;;;;0.20;0.20;;;;;;;;;;4994806;28;20448;-92
2023/09/06 11:39:40;;;;;;;0.20;0.20;;;;;;;;;;4994748;28;20366;-93
2023/09/06 11:42:08;;;;;;;0.20;0.20;;;;;;;;;;4996017;28;20077;-93
2023/09/06 11:44:34;;;;;;;0.45;0.45;;;;;;;;;;4998572;28;20429;-93
2023/09/06 11:47:00;;;;;;;0.20;0.20;;;;;;;;;;4998552;28;20072;-92
2023/09/06 11:49:28;;;;;;;0.20;0.20;;;;;;;;;;5030946;28;20049;-92
2023/09/06 11:51:56;;;;;;;0.20;0.20;;;;;;;;;;5014611;28;20149;-92
2023/09/06 11:54:26;;;;;;;0.30;0.30;;;;;;;;;;4998444;28;20095;-93
2023/09/06 11:56:57;;;;;;;0.20;0.20;;;;;;;;;;4998749;28;20042;-92
2023/09/06 11:59:24;;;;;;;0.20;0.20;;;;;;;;;;5014543;28;20038;-92
2023/09/06 12:01:59;;;;;;;0.20;0.20;;;;;;;;;;4998090;28;20542;-92
2023/09/06 12:04:28;;;;;;;0.20;0.20;;;;;;;;;;5013793;28;20034;-93
2023/09/06 12:06:55;;;;;;;0.20;0.20;;;;;;;;;;4998173;28;20060;-93
2023/09/06 12:09:23;;;;;;;0.20;0.20;;;;;;;;;;5014485;28;20436;-93
2023/09/06 12:11:55;;;;;;;0.20;0.20;;;;;;;;;;5014586;28;20050;-92
2023/09/06 12:14:21;;;;;;;0.20;0.20;;;;;;;;;;4998319;28;20413;-92
2023/09/06 12:16:47;;;;;;;0.20;0.20;;;;;;;;;;4997761;28;20049;-92
2023/09/06 12:19:15;;;;;;;0.20;0.20;;;;;;;;;;4997344;28;20050;-93
2023/09/06 12:21:42;;;;;;;0.63;0.63;;;;;;;;;;4997771;28;20133;-92
2023/09/06 12:24:08;;;;;;;0.20;0.20;;;;;;;;;;4997828;28;20077;-93
2023/09/06 12:26:34;;;;;;;0.20;0.20;;;;;;;;;;5030231;28;20073;-92
2023/09/06 12:29:00;;;;;;;0.20;0.20;;;;;;;;;;4998045;28;20389;-92
2023/09/06 12:31:26;;;;;;;0.35;0.35;;;;;;;;;;4997443;28;20504;-92
2023/09/06 12:33:52;;;;;;;0.20;0.20;;;;;;;;;;4997326;28;20137;-92
2023/09/06 12:36:18;;;;;;;0.20;0.20;;;;;;;;;;5013952;28;20081;-93
2023/09/06 12:38:44;;;;;;;0.20;0.20;;;;;;;;;;5013584;28;20069;-92
2023/09/06 12:41:10;;;;;;;0.20;0.20;;;;;;;;;;4997216;28;20479;-92
2023/09/06 12:43:37;;;;;;;0.20;0.20;;;;;;;;;;4997427;28;20120;-92
2023/09/06 12:46:06;;;;;;;0.20;0.20;;;;;;;;;;5013521;28;20073;-93
2023/09/06 12:48:32;;;;;;;0.20;0.20;;;;;;;;;;5013358;28;20042;-92
2023/09/06 12:50:58;;;;;;;0.20;0.20;;;;;;;;;;4997122;28;20457;-92
2023/09/06 12:53:24;;;;;;;0.20;0.20;;;;;;;;;;5012927;28;20137;-93
2023/09/06 12:55:50;;;;;;;0.20;0.20;;;;;;;;;;4996896;28;20117;-93
2023/09/06 12:58:16;;;;;;;0.20;0.20;;;;;;;;;;5014002;28;20117;-93
2023/09/06 13:00:43;;;;;;;0.20;0.20;;;;;;;;;;5013203;28;20060;-92
2023/09/06 13:03:09;;;;;;;0.20;0.20;;;;;;;;;;4997223;28;20143;-93
2023/09/06 13:05:35;;;;;;;0.20;0.20;;;;;;;;;;4997561;28;20041;-92
2023/09/06 13:08:01;;;;;;;0.13;0.13;;;;;;;;;;4996832;28;20041;-92
2023/09/06 13:10:27;;;;;;;0.20;0.20;;;;;;;;;;4996559;28;20034;-92
2023/09/06 13:12:53;;;;;;;0.28;0.28;;;;;;;;;;4996733;28;20033;-92
2023/09/06 13:15:19;;;;;;;0.20;0.20;;;;;;;;;;4996429;28;20367;-92
2023/09/06 13:17:45;;;;;;;0.20;0.20;;;;;;;;;;5012844;28;20156;-92
2023/09/06 13:20:12;;;;;;;0.20;0.20;;;;;;;;;;5012825;28;20061;-92
2023/09/06 13:22:38;;;;;;;0.57;0.50;;;;;;;;;;5012682;28;20532;-92
2023/09/06 13:25:08;;;;;;;0.20;0.20;;;;;;;;;;5012842;28;20073;-92
2023/09/06 13:27:34;;;;;;;0.20;0.20;;;;;;;;;;4996769;28;20096;-92
2023/09/06 13:30:00;;;;;;;0.20;0.20;;;;;;;;;;5012545;28;20121;-92
2023/09/06 13:32:26;;;;;;;0.20;0.20;;;;;;;;;;4995898;28;20229;-93
2023/09/06 13:34:52;;;;;;;0.20;0.20;;;;;;;;;;5012437;28;20084;-92
2023/09/06 13:37:19;;;;;;;0.20;0.20;;;;;;;;;;4996144;28;20057;-92
2023/09/06 13:39:45;;;;;;;0.20;0.20;;;;;;;;;;4996031;28;20044;-92
2023/09/06 13:42:11;;;;;;;0.20;0.20;;;;;;;;;;4995981;28;20369;-92
2023/09/06 13:44:37;;;;;;;0.20;0.20;;;;;;;;;;4996266;28;20397;-92
2023/09/06 13:47:04;;;;;;;0.20;0.20;;;;;;;;;;5013858;28;20045;-92
2023/09/06 13:49:30;;;;;;;0.30;0.30;;;;;;;;;;4996200;28;20057;-92
2023/09/06 13:51:56;;;;;;;0.20;0.20;;;;;;;;;;4995856;28;20064;-92
2023/09/06 13:54:23;;;;;;;0.20;0.20;;;;;;;;;;5011929;28;20493;-92
2023/09/06 13:56:49;;;;;;;0.20;0.20;;;;;;;;;;4995950;28;20078;-92
2023/09/06 13:59:16;;;;;;;0.20;0.20;;;;;;;;;;4995699;28;20121;-92
2023/09/06 14:01:42;;;;;;;0.22;0.22;;;;;;;;;;4996074;28;20096;-92
2023/09/06 14:04:08;;;;;;;0.30;0.30;;;;;;;;;;5028375;28;20474;-93
2023/09/06 14:06:37;;;;;;;0.20;0.20;;;;;;;;;;4995995;28;20098;-92
2023/09/06 14:09:07;;;;;;;0.20;0.20;;;;;;;;;;4996356;28;20437;-92
2023/09/06 14:11:34;;;;;;;0.20;0.20;;;;;;;;;;4996586;28;20442;-92
2023/09/06 14:14:00;;;;;;;0.20;0.20;;;;;;;;;;4995434;28;20401;-91
2023/09/06 14:16:26;;;;;;;0.20;0.20;;;;;;;;;;5011515;28;20474;-92
2023/09/06 14:18:52;;;;;;;0.47;0.47;;;;;;;;;;4995455;28;20054;-92
2023/09/06 14:21:21;;;;;;;0.20;0.20;;;;;;;;;;5011977;28;20052;-92
2023/09/06 14:23:48;;;;;;;0.20;0.20;;;;;;;;;;5011760;28;20189;-92
2023/09/06 14:26:14;;;;;;;0.20;0.20;;;;;;;;;;5011886;28;20440;-92
2023/09/06 14:28:41;;;;;;;0.20;0.20;;;;;;;;;;5011661;28;20553;-92
2023/09/06 14:31:13;;;;;;;0.20;0.20;;;;;;;;;;4995818;28;20065;-92
2023/09/06 14:33:39;;;;;;;0.20;0.20;;;;;;;;;;4995641;28;20046;-92
2023/09/06 14:36:06;;;;;;;0.20;0.20;;;;;;;;;;4995436;28;20038;-92
2023/09/06 14:38:32;;;;;;;0.20;0.20;;;;;;;;;;5011941;28;20065;-92
2023/09/06 14:40:58;;;;;;;0.20;0.20;;;;;;;;;;4995605;28;20048;-92
2023/09/06 14:43:24;;;;;;;0.20;0.20;;;;;;;;;;4995638;28;20041;-92